createdAt,value
2022-12-31T00:01:57.326Z,5.11
2022-12-31T00:04:25.331Z,5.14
2022-12-31T00:06:53.305Z,5.17
2022-12-31T00:09:23.027Z,5.11
2022-12-31T00:20:29.348Z,5.16
2022-12-31T00:22:57.227Z,5.16
2022-12-31T00:25:29.282Z,5.17
2022-12-31T00:27:57.154Z,5.17
2022-12-31T00:30:25.146Z,5.16
2022-12-31T00:32:54.957Z,5.05
2022-12-31T00:35:23.157Z,5.09
2022-12-31T00:37:55.015Z,5.08
2022-12-31T00:40:24.040Z,5.06
2022-12-31T00:42:52.095Z,5.10
2022-12-31T00:45:20.031Z,5.11
2022-12-31T00:47:47.913Z,5.17
2022-12-31T00:50:16.311Z,5.08
2022-12-31T00:52:44.180Z,5.03
2022-12-31T00:55:14.005Z,5.01
2022-12-31T00:57:42.318Z,5.01
2022-12-31T01:00:11.033Z,5.04
2022-12-31T01:02:39.334Z,4.94
2022-12-31T01:05:08.225Z,4.87
2022-12-31T01:08:02.217Z,4.98
2022-12-31T01:10:48.724Z,5.00
2022-12-31T01:13:16.694Z,5.03
2022-12-31T01:15:44.568Z,5.01
2022-12-31T01:18:13.164Z,4.98
2022-12-31T01:20:44.339Z,4.97
2022-12-31T01:23:12.224Z,5.01
2022-12-31T01:25:43.772Z,5.03
2022-12-31T01:28:12.374Z,4.94
2022-12-31T01:30:44.085Z,4.94
2022-12-31T01:33:13.377Z,4.90
2022-12-31T01:35:41.231Z,4.92
2022-12-31T01:38:10.149Z,4.95
2022-12-31T01:41:04.384Z,4.92
2022-12-31T01:43:49.125Z,5.01
2022-12-31T01:46:40.406Z,4.90
2022-12-31T01:49:08.258Z,4.88
2022-12-31T01:51:45.444Z,4.93
2022-12-31T01:54:17.283Z,4.88
2022-12-31T01:59:43.351Z,4.94
2022-12-31T02:02:13.038Z,5.02
2022-12-31T02:04:40.956Z,4.91
2022-12-31T02:07:14.318Z,4.97
2022-12-31T02:09:42.739Z,4.91
2022-12-31T02:12:11.107Z,4.88
2022-12-31T02:14:45.071Z,4.91
2022-12-31T02:17:49.303Z,4.94
2022-12-31T02:20:18.966Z,4.97
2022-12-31T02:23:05.999Z,4.92
2022-12-31T02:25:59.053Z,4.95
2022-12-31T02:29:02.298Z,4.98
2022-12-31T02:32:12.659Z,4.98
2022-12-31T02:34:57.424Z,4.97
2022-12-31T02:37:28.583Z,4.96
2022-12-31T02:39:58.365Z,4.83
2022-12-31T02:42:28.097Z,4.92
2022-12-31T02:44:55.999Z,4.97
2022-12-31T02:47:42.258Z,5.03
2022-12-31T02:56:50.444Z,5.05
2022-12-31T02:59:47.900Z,4.96
2022-12-31T03:02:19.713Z,5.11
2022-12-31T03:04:51.253Z,5.13
2022-12-31T03:07:23.682Z,5.12
2022-12-31T03:09:52.936Z,5.13
2022-12-31T03:12:44.282Z,5.17
2022-12-31T03:15:20.090Z,5.28
2022-12-31T03:18:15.388Z,5.27
2022-12-31T03:21:09.600Z,5.29
2022-12-31T03:26:33.375Z,5.28
2022-12-31T03:29:02.748Z,5.32
2022-12-31T03:31:30.614Z,5.33
2022-12-31T03:33:58.563Z,5.32
2022-12-31T03:36:27.990Z,5.41
2022-12-31T03:39:20.592Z,5.36
2022-12-31T03:41:49.049Z,5.36
2022-12-31T03:44:16.972Z,5.38
2022-12-31T03:46:44.838Z,5.33
2022-12-31T03:49:16.401Z,5.28
2022-12-31T03:51:45.046Z,5.30
2022-12-31T03:54:13.072Z,5.28
2022-12-31T03:56:40.952Z,5.31
2022-12-31T03:59:12.395Z,5.43
2022-12-31T04:01:41.071Z,5.37
2022-12-31T04:04:09.017Z,5.37
2022-12-31T04:06:37.236Z,5.34
2022-12-31T04:09:05.175Z,5.36
2022-12-31T04:11:33.088Z,5.45
2022-12-31T04:14:05.321Z,5.42
2022-12-31T04:16:34.261Z,5.44
2022-12-31T04:19:03.273Z,5.45
2022-12-31T04:21:35.013Z,5.44
2022-12-31T04:24:03.657Z,5.45
2022-12-31T04:26:32.045Z,5.57
2022-12-31T04:29:00.097Z,5.55
2022-12-31T04:31:28.018Z,5.48
2022-12-31T04:33:56.020Z,5.49
2022-12-31T04:36:24.024Z,5.50
2022-12-31T04:38:51.930Z,5.46
2022-12-31T04:41:21.027Z,5.47
2022-12-31T04:43:52.171Z,5.41
2022-12-31T04:46:24.438Z,5.46
2022-12-31T04:48:52.550Z,5.38
2022-12-31T04:51:20.700Z,5.48
2022-12-31T04:53:53.420Z,5.48
2022-12-31T04:56:21.825Z,5.39
2022-12-31T04:58:50.196Z,5.44
2022-12-31T05:01:18.446Z,5.41
2022-12-31T05:03:46.972Z,5.40
2022-12-31T05:06:18.374Z,5.51
2022-12-31T05:08:47.606Z,5.50
2022-12-31T05:11:16.388Z,5.48
2022-12-31T05:13:44.414Z,5.48
2022-12-31T05:16:16.157Z,5.45
2022-12-31T05:18:45.326Z,5.52
2022-12-31T05:21:20.046Z,5.51
2022-12-31T05:23:48.365Z,5.51
2022-12-31T05:26:16.520Z,5.53
2022-12-31T05:28:45.042Z,5.55
2022-12-31T05:31:14.390Z,5.45
2022-12-31T05:33:43.025Z,5.48
2022-12-31T05:36:11.342Z,5.49
2022-12-31T05:38:39.238Z,5.49
2022-12-31T05:44:29.370Z,5.66
2022-12-31T05:46:57.321Z,5.56
2022-12-31T05:49:25.255Z,5.50
2022-12-31T05:51:56.366Z,5.53
2022-12-31T05:54:24.224Z,5.49
2022-12-31T05:56:52.287Z,5.46
2022-12-31T05:59:20.167Z,5.51
2022-12-31T06:01:50.424Z,5.47
2022-12-31T06:04:43.551Z,5.51
2022-12-31T06:07:12.342Z,5.54
2022-12-31T06:09:40.202Z,5.50
2022-12-31T06:12:08.194Z,5.51
2022-12-31T06:14:39.574Z,5.46
2022-12-31T06:17:10.205Z,5.45
2022-12-31T06:19:38.064Z,5.39
2022-12-31T06:22:05.893Z,5.44
2022-12-31T06:27:29.650Z,5.41
2022-12-31T06:29:57.491Z,5.32
2022-12-31T06:32:25.347Z,5.36
2022-12-31T06:35:19.348Z,5.37
2022-12-31T06:37:47.382Z,5.47
2022-12-31T06:40:15.286Z,5.28
2022-12-31T06:42:43.392Z,5.36
2022-12-31T06:45:11.422Z,5.24
2022-12-31T06:47:39.281Z,5.30
2022-12-31T06:50:09.517Z,5.13
2022-12-31T06:52:38.304Z,5.12
2022-12-31T06:55:06.812Z,5.15
2022-12-31T06:57:35.383Z,5.22
2022-12-31T07:00:05.151Z,5.27
2022-12-31T07:03:17.601Z,5.25
2022-12-31T07:06:02.744Z,5.36
2022-12-31T07:08:31.493Z,5.28
2022-12-31T07:11:28.138Z,5.42
2022-12-31T07:14:07.351Z,5.31
2022-12-31T07:16:41.695Z,5.30
2022-12-31T07:19:21.773Z,5.32
2022-12-31T07:21:54.564Z,5.34
2022-12-31T07:24:23.383Z,5.34
2022-12-31T07:27:17.575Z,5.44
2022-12-31T07:30:00.390Z,5.46
2022-12-31T07:32:40.970Z,5.44
2022-12-31T07:35:35.435Z,5.43
2022-12-31T07:38:14.946Z,5.37
2022-12-31T07:41:07.356Z,5.36
2022-12-31T07:43:42.897Z,5.50
2022-12-31T07:46:45.450Z,5.43
2022-12-31T07:49:13.859Z,5.49
2022-12-31T07:51:42.409Z,5.58
2022-12-31T07:54:14.252Z,5.51
2022-12-31T07:56:44.531Z,5.57
2022-12-31T07:59:28.087Z,5.57
2022-12-31T08:02:26.498Z,5.66
2022-12-31T08:05:14.559Z,5.65
2022-12-31T08:08:17.533Z,5.67
2022-12-31T08:11:00.633Z,5.72
2022-12-31T08:13:28.683Z,5.72
2022-12-31T08:15:56.782Z,5.73
2022-12-31T08:18:24.910Z,5.80
2022-12-31T08:21:21.911Z,5.85
2022-12-31T08:24:01.868Z,5.84
2022-12-31T08:26:52.766Z,5.89
2022-12-31T08:29:51.740Z,5.93
2022-12-31T08:32:35.705Z,5.91
2022-12-31T08:35:10.031Z,5.97
2022-12-31T08:41:08.460Z,6.12
2022-12-31T08:44:01.231Z,6.17
2022-12-31T08:46:37.361Z,6.15
2022-12-31T08:49:05.549Z,6.24
2022-12-31T08:51:33.861Z,6.23
2022-12-31T08:54:03.825Z,6.34
2022-12-31T08:56:59.697Z,6.33
2022-12-31T09:00:11.651Z,6.37
2022-12-31T09:06:06.799Z,6.44
2022-12-31T09:08:58.880Z,6.49
2022-12-31T09:11:41.522Z,6.54
2022-12-31T09:14:18.423Z,6.54
2022-12-31T09:17:02.427Z,6.55
2022-12-31T09:19:30.361Z,6.52
2022-12-31T09:21:59.561Z,6.58
2022-12-31T09:24:27.651Z,6.69
2022-12-31T09:27:30.784Z,6.65
2022-12-31T09:30:07.489Z,6.71
2022-12-31T09:33:00.326Z,6.77
2022-12-31T09:35:28.757Z,6.79
2022-12-31T09:38:18.466Z,6.85
2022-12-31T09:40:56.241Z,6.95
2022-12-31T09:43:42.375Z,6.99
2022-12-31T09:47:03.981Z,7.08
2022-12-31T09:50:33.718Z,7.09
2022-12-31T09:53:16.542Z,7.04
2022-12-31T09:56:05.566Z,7.23
2022-12-31T09:58:47.793Z,7.20
2022-12-31T10:01:34.557Z,7.15
2022-12-31T10:04:19.599Z,7.15
2022-12-31T10:07:09.783Z,7.22
2022-12-31T10:10:07.175Z,7.39
2022-12-31T10:13:02.388Z,7.48
2022-12-31T10:15:50.134Z,7.53
2022-12-31T10:18:29.395Z,7.59
2022-12-31T10:21:33.020Z,7.65
2022-12-31T10:24:43.522Z,7.69
2022-12-31T10:27:34.692Z,7.77
2022-12-31T10:30:13.455Z,7.81
2022-12-31T10:33:00.637Z,7.70
2022-12-31T10:35:39.643Z,7.86
2022-12-31T10:38:22.593Z,7.96
2022-12-31T10:41:19.403Z,7.95
2022-12-31T10:44:07.297Z,8.13
2022-12-31T10:47:00.054Z,8.07
2022-12-31T10:50:04.440Z,8.12
2022-12-31T10:53:00.614Z,8.19
2022-12-31T10:55:40.519Z,8.18
2022-12-31T10:58:27.461Z,8.24
2022-12-31T11:10:52.374Z,8.46
2022-12-31T11:14:01.744Z,8.60
2022-12-31T11:17:08.442Z,8.58
2022-12-31T11:19:53.338Z,8.50
2022-12-31T11:22:38.468Z,8.58
2022-12-31T11:25:14.187Z,8.69
2022-12-31T11:27:53.421Z,8.62
2022-12-31T11:30:27.975Z,8.69
2022-12-31T11:33:08.437Z,8.80
2022-12-31T11:35:43.204Z,8.88
2022-12-31T11:38:29.802Z,8.99
2022-12-31T11:41:06.441Z,9.03
2022-12-31T11:44:07.480Z,9.07
2022-12-31T11:46:37.137Z,9.22
2022-12-31T11:49:12.445Z,9.32
2022-12-31T11:52:16.055Z,9.38
2022-12-31T11:55:00.487Z,9.36
2022-12-31T11:57:30.033Z,9.32
2022-12-31T12:00:20.586Z,9.30
2022-12-31T12:02:52.255Z,9.28
2022-12-31T12:05:50.122Z,9.32
2022-12-31T12:08:20.471Z,9.35
2022-12-31T12:10:55.419Z,9.35
2022-12-31T12:13:25.588Z,9.37
2022-12-31T12:16:02.117Z,9.49
2022-12-31T12:18:40.808Z,9.51
2022-12-31T12:21:17.719Z,9.55
2022-12-31T12:23:57.928Z,9.54
2022-12-31T12:26:37.428Z,9.45
2022-12-31T12:29:11.513Z,9.51
2022-12-31T12:31:42.578Z,9.49
2022-12-31T12:34:29.146Z,9.49
2022-12-31T12:36:57.643Z,9.33
2022-12-31T12:39:28.934Z,9.56
2022-12-31T12:42:09.517Z,9.56
2022-12-31T12:44:37.913Z,9.45
2022-12-31T12:47:09.153Z,9.42
2022-12-31T12:49:42.447Z,9.48
2022-12-31T12:52:45.314Z,9.50
2022-12-31T12:55:54.496Z,9.60
2022-12-31T12:58:45.424Z,9.52
2022-12-31T13:01:19.365Z,9.59
2022-12-31T13:04:32.387Z,9.56
2022-12-31T13:07:11.483Z,9.52
2022-12-31T13:10:33.728Z,9.65
2022-12-31T13:13:25.538Z,9.75
2022-12-31T13:16:12.746Z,9.69
2022-12-31T13:18:55.422Z,9.72
2022-12-31T13:22:05.157Z,9.70
2022-12-31T13:25:17.521Z,9.49
2022-12-31T13:27:50.312Z,9.70
2022-12-31T13:30:22.508Z,9.66
2022-12-31T13:33:07.660Z,9.75
2022-12-31T13:35:54.817Z,9.69
2022-12-31T13:38:26.772Z,9.73
2022-12-31T13:40:57.750Z,9.93
2022-12-31T13:43:34.566Z,9.86
2022-12-31T13:46:43.060Z,9.96
2022-12-31T13:49:47.404Z,9.95
2022-12-31T13:52:26.420Z,9.87
2022-12-31T13:55:16.021Z,9.73
2022-12-31T13:57:51.421Z,9.72
2022-12-31T14:00:24.161Z,9.78
2022-12-31T14:03:23.449Z,9.76
2022-12-31T14:06:00.615Z,9.74
2022-12-31T14:08:29.066Z,9.74
2022-12-31T14:11:19.408Z,9.68
2022-12-31T14:13:48.175Z,9.74
2022-12-31T14:16:36.546Z,9.72
2022-12-31T14:19:16.557Z,9.58
2022-12-31T14:22:22.459Z,9.71
2022-12-31T14:24:52.408Z,9.61
2022-12-31T14:27:30.168Z,9.62
2022-12-31T14:30:06.544Z,9.54
2022-12-31T14:32:37.233Z,9.56
2022-12-31T14:35:52.466Z,9.50
2022-12-31T14:38:35.425Z,9.50
2022-12-31T14:41:37.434Z,9.52
2022-12-31T14:44:19.403Z,9.50
2022-12-31T14:47:05.504Z,9.46
2022-12-31T14:49:46.463Z,9.39
2022-12-31T14:52:34.645Z,9.36
2022-12-31T14:55:04.538Z,9.23
2022-12-31T14:58:16.817Z,9.20
2022-12-31T15:00:29.441Z,9.19
2022-12-31T15:03:06.511Z,9.08
2022-12-31T15:06:19.548Z,9.01
2022-12-31T15:09:08.141Z,8.95
2022-12-31T15:12:05.597Z,8.83
2022-12-31T15:14:54.036Z,8.84
2022-12-31T15:17:37.342Z,8.84
2022-12-31T15:20:25.916Z,8.74
2022-12-31T15:22:54.960Z,8.74
2022-12-31T15:25:36.963Z,8.66
2022-12-31T15:28:29.000Z,8.57
2022-12-31T15:31:04.146Z,8.55
2022-12-31T15:33:39.448Z,8.50
2022-12-31T15:36:13.413Z,8.48
2022-12-31T15:38:43.449Z,8.44
2022-12-31T15:41:19.312Z,8.40
2022-12-31T15:47:23.056Z,8.29
2022-12-31T15:49:54.047Z,8.27
2022-12-31T15:52:34.584Z,8.26
2022-12-31T15:55:05.570Z,8.25
2022-12-31T15:57:38.558Z,8.21
2022-12-31T16:00:16.933Z,8.20
2022-12-31T16:02:45.915Z,8.33
2022-12-31T16:05:25.935Z,8.21
2022-12-31T16:07:59.433Z,8.11
2022-12-31T16:10:30.788Z,8.05
2022-12-31T16:13:00.137Z,8.02
2022-12-31T16:15:34.306Z,8.00
2022-12-31T16:18:22.363Z,7.98
2022-12-31T16:20:51.922Z,7.89
2022-12-31T16:23:27.824Z,7.87
2022-12-31T16:26:00.258Z,7.86
2022-12-31T16:28:33.171Z,7.87
2022-12-31T16:31:04.537Z,7.79
2022-12-31T16:33:33.035Z,7.74
2022-12-31T16:36:02.081Z,7.74
2022-12-31T16:38:35.927Z,7.69
2022-12-31T16:41:03.743Z,7.71
2022-12-31T16:43:40.188Z,7.61
2022-12-31T16:46:30.470Z,7.48
2022-12-31T16:52:21.513Z,7.35
2022-12-31T16:54:50.939Z,7.26
2022-12-31T17:00:20.431Z,7.26
2022-12-31T17:03:02.644Z,7.27
2022-12-31T17:05:36.511Z,7.31
2022-12-31T17:08:28.823Z,7.27
2022-12-31T17:10:57.363Z,7.25
2022-12-31T17:13:30.745Z,7.39
2022-12-31T17:16:00.010Z,7.44
2022-12-31T17:18:36.412Z,7.39
2022-12-31T17:21:11.512Z,7.28
2022-12-31T17:23:41.876Z,7.30
2022-12-31T17:26:38.152Z,7.28
2022-12-31T17:29:08.048Z,7.21
2022-12-31T17:31:39.546Z,7.20
2022-12-31T17:34:13.206Z,7.16
2022-12-31T17:36:57.486Z,7.13
2022-12-31T17:39:26.701Z,7.04
2022-12-31T17:41:59.545Z,7.02
2022-12-31T17:44:29.353Z,6.83
2022-12-31T17:46:59.537Z,6.84
2022-12-31T17:49:30.644Z,6.85
2022-12-31T17:52:00.559Z,6.82
2022-12-31T17:54:30.127Z,6.84
2022-12-31T17:59:50.581Z,6.84
2022-12-31T18:02:18.610Z,6.80
2022-12-31T18:04:46.605Z,6.82
2022-12-31T18:07:14.605Z,6.80
2022-12-31T18:09:44.138Z,6.75
2022-12-31T18:12:18.455Z,6.67
2022-12-31T18:14:46.914Z,6.65
2022-12-31T18:17:16.445Z,6.68
2022-12-31T18:22:32.766Z,6.59
2022-12-31T18:25:01.034Z,6.44
2022-12-31T18:27:34.104Z,6.44
2022-12-31T18:30:06.455Z,6.45
2022-12-31T18:32:37.817Z,6.54
2022-12-31T18:35:32.894Z,6.55
2022-12-31T18:38:05.509Z,6.51
2022-12-31T18:40:34.029Z,6.48
2022-12-31T18:43:05.158Z,6.36
2022-12-31T18:45:33.621Z,6.38
2022-12-31T18:48:01.727Z,6.41
2022-12-31T18:50:35.886Z,6.39
2022-12-31T18:53:04.285Z,6.29
2022-12-31T18:55:41.606Z,6.30
2022-12-31T18:58:10.976Z,6.22
2022-12-31T19:00:39.033Z,6.21
2022-12-31T19:05:59.616Z,6.18
2022-12-31T19:08:28.188Z,6.13
2022-12-31T19:10:56.431Z,6.15
2022-12-31T19:13:24.364Z,6.23
2022-12-31T19:15:56.228Z,6.18
2022-12-31T19:18:24.212Z,6.17
2022-12-31T19:20:52.552Z,5.98
2022-12-31T19:23:22.430Z,6.02
2022-12-31T19:25:51.558Z,6.02
2022-12-31T19:28:26.506Z,5.94
2022-12-31T19:30:54.991Z,6.05
2022-12-31T19:33:23.069Z,5.98
2022-12-31T19:35:52.442Z,6.05
2022-12-31T19:38:25.398Z,6.06
2022-12-31T19:40:55.541Z,6.02
2022-12-31T19:43:23.762Z,6.05
2022-12-31T19:45:52.210Z,6.04
2022-12-31T19:48:32.625Z,6.02
2022-12-31T19:51:01.235Z,6.00
2022-12-31T19:53:29.464Z,6.02
2022-12-31T19:55:57.396Z,5.86
2022-12-31T19:58:27.839Z,5.78
2022-12-31T20:01:02.315Z,5.76
2022-12-31T20:03:33.541Z,5.80
2022-12-31T20:06:07.726Z,5.66
2022-12-31T20:08:37.568Z,5.62
2022-12-31T20:11:24.714Z,5.57
2022-12-31T20:13:54.557Z,5.51
2022-12-31T20:16:26.877Z,5.54
2022-12-31T20:18:56.540Z,5.61
2022-12-31T20:21:28.288Z,5.66
2022-12-31T20:23:56.409Z,5.75
2022-12-31T20:26:26.011Z,5.72
2022-12-31T20:28:55.055Z,5.70
2022-12-31T20:31:25.036Z,5.67
2022-12-31T20:33:55.506Z,5.66
2022-12-31T20:36:24.602Z,5.73
2022-12-31T20:38:56.280Z,5.50
2022-12-31T20:41:26.268Z,5.38
2022-12-31T20:43:55.545Z,5.39
2022-12-31T20:46:27.514Z,5.57
2022-12-31T20:49:00.707Z,5.51
2022-12-31T20:51:31.543Z,5.60
2022-12-31T20:54:05.508Z,5.50
2022-12-31T20:56:37.545Z,5.47
2022-12-31T20:59:09.288Z,5.44
2022-12-31T21:02:11.761Z,5.36
2022-12-31T21:04:28.383Z,5.42
2022-12-31T21:06:57.520Z,5.30
2022-12-31T21:09:25.439Z,5.33
2022-12-31T21:12:13.453Z,5.26
2022-12-31T21:14:44.906Z,5.28
2022-12-31T21:17:38.935Z,5.31
2022-12-31T21:20:07.870Z,5.32
2022-12-31T21:28:23.508Z,5.37
2022-12-31T21:31:00.319Z,5.32
2022-12-31T21:33:33.099Z,5.28
2022-12-31T21:36:04.736Z,5.10
2022-12-31T21:38:57.647Z,5.09
2022-12-31T21:41:44.059Z,5.11
2022-12-31T21:44:15.338Z,5.04
2022-12-31T21:47:15.779Z,5.12
2022-12-31T21:49:32.588Z,5.06
2022-12-31T21:52:19.082Z,5.11
2022-12-31T21:55:05.928Z,5.13
2022-12-31T21:57:51.967Z,5.16
2022-12-31T22:00:42.962Z,5.14
2022-12-31T22:03:24.487Z,5.16
2022-12-31T22:06:11.610Z,5.01
2022-12-31T22:08:42.790Z,5.08
2022-12-31T22:11:13.544Z,5.07
2022-12-31T22:13:46.014Z,5.02
2022-12-31T22:22:01.592Z,4.82
2022-12-31T22:24:30.347Z,4.89
2022-12-31T22:27:28.842Z,4.82
2022-12-31T22:29:49.457Z,4.90
2022-12-31T22:32:17.508Z,4.85
2022-12-31T22:34:45.392Z,4.77
2022-12-31T22:37:35.764Z,4.71
2022-12-31T22:43:21.793Z,4.72
2022-12-31T22:45:50.235Z,4.72
2022-12-31T22:48:18.802Z,4.62
2022-12-31T22:50:56.653Z,4.59
2022-12-31T22:53:25.232Z,4.61
2022-12-31T22:55:55.106Z,4.63
2022-12-31T22:58:24.564Z,4.61
2022-12-31T23:00:53.387Z,4.55
2022-12-31T23:03:22.588Z,4.50
2022-12-31T23:05:52.544Z,4.47
2022-12-31T23:08:23.611Z,4.47
2022-12-31T23:11:01.525Z,4.51
2022-12-31T23:13:59.648Z,4.44
2022-12-31T23:16:49.520Z,4.39
2022-12-31T23:19:37.454Z,4.34
2022-12-31T23:22:25.573Z,4.39
2022-12-31T23:24:54.243Z,4.31
2022-12-31T23:27:23.288Z,4.34
2022-12-31T23:29:51.488Z,4.27
2022-12-31T23:32:20.571Z,4.20
2022-12-31T23:34:48.677Z,4.13
2022-12-31T23:37:18.523Z,3.91
2022-12-31T23:39:46.469Z,4.00
2022-12-31T23:42:14.355Z,4.05
2022-12-31T23:44:42.492Z,4.17
2022-12-31T23:47:10.381Z,4.22
2022-12-31T23:49:39.524Z,4.21
2022-12-31T23:52:09.239Z,4.29
2022-12-31T23:54:37.513Z,4.25
2022-12-31T23:57:06.287Z,4.33
2022-12-31T23:59:34.290Z,4.23
